Time,TemperatureF,DewpointF,PressureIn,WindDirection,WindDirectionDegrees,WindSpeedMPH,WindSpeedGustMPH,Humidity,HourlyPrecipIn,Conditions,Clouds,dailyrainin,SolarRadiationWatts/m^2,SoftwareType,DateUTC
2013-03-02 00:00:00,32.0,27.7,29.77,NNW,335,1.0,3.0,84,0.00,,,0.00,0,Wunderground v.1.15,2013-03-02 05:00:00,
2013-03-02 00:01:00,32.0,27.7,29.78,NNW,335,1.0,3.0,84,0.00,,,0.00,0,Wunderground v.1.15,2013-03-02 05:01:00,
2013-03-02 00:02:00,32.0,27.7,29.78,NNW,335,1.0,3.0,84,0.00,,,0.00,0,Wunderground v.1.15,2013-03-02 05:02:00,
2013-03-02 00:07:00,32.0,27.4,29.77,West,279,1.0,3.0,83,0.00,,,0.00,0,Wunderground v.1.15,2013-03-02 05:07:00,
2013-03-02 00:13:00,32.0,27.4,29.77,NW,321,2.0,3.0,83,0.00,,,0.00,0,Wunderground v.1.15,2013-03-02 05:13:00,
2013-03-02 00:19:00,32.0,27.4,29.77,NNW,335,2.0,5.0,83,0.00,,,0.00,0,Wunderground v.1.15,2013-03-02 05:19:00,
2013-03-02 00:24:00,32.0,27.4,29.77,NNW,336,1.0,2.0,83,0.00,,,0.00,0,Wunderground v.1.15,2013-03-02 05:24:00,
2013-03-02 00:30:00,31.9,27.3,29.77,NE,46,2.0,2.0,83,0.00,,,0.00,0,Wunderground v.1.15,2013-03-02 05:30:00,
2013-03-02 00:36:00,31.9,27.3,29.77,NW,315,2.0,8.0,83,0.00,,,0.00,0,Wunderground v.1.15,2013-03-02 05:36:00,
2013-03-02 00:42:00,31.9,27.0,29.77,WNW,300,1.0,8.0,82,0.00,,,0.00,0,Wunderground v.1.15,2013-03-02 05:42:00,
2013-03-02 00:47:00,31.9,27.0,29.77,NNW,344,1.0,8.0,82,0.00,,,0.00,0,Wunderground v.1.15,2013-03-02 05:47:00,
2013-03-02 00:53:00,31.9,27.0,29.77,West,275,1.0,8.0,82,0.00,,,0.00,0,Wunderground v.1.15,2013-03-02 05:53:00,
2013-03-02 00:58:00,31.9,27.0,29.77,WNW,303,1.0,8.0,82,0.00,,,0.00,0,Wunderground v.1.15,2013-03-02 05:58:00,
2013-03-02 01:04:00,31.8,26.9,29.77,NNE,24,1.0,1.0,82,0.00,,,0.00,0,Wunderground v.1.15,2013-03-02 06:04:00,
2013-03-02 07:00:00,29.4,24.6,29.78,WNW,290,2.0,6.0,82,0.00,,,0.00,9,Wunderground v.1.15,2013-03-02 12:00:00,
2013-03-02 07:06:00,29.4,24.6,29.78,WNW,296,2.0,6.0,82,0.00,,,0.00,9,Wunderground v.1.15,2013-03-02 12:06:00,
2013-03-02 07:11:00,29.4,25.0,29.78,WSW,254,0.0,6.0,82,0.00,,,0.00,11,weatherlink.com 1.10,2013-03-02 12:11:00,
2013-03-02 07:17:00,29.5,24.7,29.78,NNW,329,2.0,6.0,82,0.00,,,0.00,12,Wunderground v.1.15,2013-03-02 12:17:00,
2013-03-02 07:22:00,29.5,24.7,29.78,North,355,2.0,6.0,82,0.00,,,0.00,14,Wunderground v.1.15,2013-03-02 12:22:00,
2013-03-02 07:27:00,29.6,24.5,29.78,NNW,345,2.0,6.0,81,0.00,,,0.00,16,Wunderground v.1.15,2013-03-02 12:27:00,
2013-03-02 07:33:00,29.6,24.5,29.78,NW,321,2.0,6.0,81,0.00,,,0.00,19,Wunderground v.1.15,2013-03-02 12:33:00,
2013-03-02 07:39:00,29.7,24.6,29.78,North,350,2.0,6.0,81,0.00,,,0.00,26,Wunderground v.1.15,2013-03-02 12:39:00,
2013-03-02 07:44:00,29.8,24.7,29.78,North,360,2.0,6.0,81,0.00,,,0.00,26,Wunderground v.1.15,2013-03-02 12:44:00,
2013-03-02 07:50:00,29.9,24.8,29.79,WNW,290,1.0,1.0,81,0.00,,,0.00,28,Wunderground v.1.15,2013-03-02 12:50:00,
2013-03-02 07:55:00,30.1,24.7,29.78,NW,317,0.0,6.0,80,0.00,,,0.00,30,Wunderground v.1.15,2013-03-02 12:55:00,
2013-03-02 08:00:00,30.3,24.6,29.78,NW,325,2.0,3.0,79,0.00,,,0.00,37,Wunderground v.1.15,2013-03-02 13:00:00,
2013-03-02 08:06:00,30.3,24.6,29.78,NW,317,2.0,3.0,79,0.00,,,0.00,40,Wunderground v.1.15,2013-03-02 13:06:00,
2013-03-02 08:11:00,30.4,24.7,29.78,West,278,1.0,2.0,79,0.00,,,0.00,44,Wunderground v.1.15,2013-03-02 13:11:00,
2013-03-02 08:16:00,30.5,24.5,29.78,North,360,1.0,4.0,78,0.00,,,0.00,42,Wunderground v.1.15,2013-03-02 13:16:00,
2013-03-02 08:22:00,30.6,24.9,29.78,NW,326,2.0,3.0,79,0.00,,,0.00,40,Wunderground v.1.15,2013-03-02 13:22:00,
2013-03-02 08:27:00,30.6,24.6,29.78,West,263,1.0,3.0,78,0.00,,,0.00,49,Wunderground v.1.15,2013-03-02 13:27:00,
2013-03-02 08:33:00,30.5,24.1,29.79,North,360,3.0,9.0,77,0.00,,,0.00,54,Wunderground v.1.15,2013-03-02 13:33:00,
2013-03-02 08:38:00,30.4,24.1,29.79,NW,311,3.0,9.0,77,0.00,,,0.00,51,Wunderground v.1.15,2013-03-02 13:38:00,
2013-03-02 08:44:00,30.3,24.0,29.79,West,260,3.0,9.0,77,0.00,,,0.00,53,Wunderground v.1.15,2013-03-02 13:44:00,
2013-03-02 08:50:00,30.3,24.0,29.79,NW,306,3.0,9.0,77,0.00,,,0.00,63,Wunderground v.1.15,2013-03-02 13:50:00,
2013-03-02 08:56:00,30.4,24.1,29.78,North,360,3.0,9.0,77,0.00,,,0.00,74,Wunderground v.1.15,2013-03-02 13:56:00,
2013-03-02 09:01:00,30.4,23.7,29.78,NNW,335,4.0,7.0,76,0.00,,,0.00,83,Wunderground v.1.15,2013-03-02 14:01:00,
2013-03-02 09:07:00,30.5,23.8,29.78,NW,308,4.0,7.0,76,0.00,,,0.00,88,Wunderground v.1.15,2013-03-02 14:07:00,
2013-03-02 09:13:00,30.7,24.3,29.78,NE,51,3.0,4.0,77,0.00,,,0.00,93,Wunderground v.1.15,2013-03-02 14:13:00,
2013-03-02 09:19:00,30.8,24.4,29.78,NNE,22,3.0,6.0,77,0.00,,,0.00,97,Wunderground v.1.15,2013-03-02 14:19:00,
2013-03-02 09:25:00,30.9,24.5,29.78,NW,320,3.0,6.0,77,0.00,,,0.00,102,Wunderground v.1.15,2013-03-02 14:25:00,
2013-03-02 09:31:00,30.8,24.1,29.78,West,276,3.0,8.0,76,0.00,,,0.00,107,Wunderground v.1.15,2013-03-02 14:31:00,
2013-03-02 09:37:00,30.8,24.4,29.78,NNW,344,3.0,8.0,77,0.00,,,0.00,114,Wunderground v.1.15,2013-03-02 14:37:00,
2013-03-02 09:43:00,30.8,24.4,29.78,West,281,4.0,8.0,77,0.00,,,0.00,121,Wunderground v.1.15,2013-03-02 14:43:00,
2013-03-02 09:48:00,30.7,24.3,29.78,WNW,286,4.0,8.0,77,0.00,,,0.00,123,Wunderground v.1.15,2013-03-02 14:48:00,
2013-03-02 09:53:00,30.6,24.2,29.78,WNW,295,4.0,8.0,77,0.00,,,0.00,123,Wunderground v.1.15,2013-03-02 14:53:00,
2013-03-02 09:59:00,30.7,24.3,29.78,NW,318,4.0,8.0,77,0.00,,,0.00,125,Wunderground v.1.15,2013-03-02 14:59:00,
2013-03-02 10:04:00,30.8,24.7,29.78,WSW,246,4.0,5.0,78,0.00,,,0.00,144,Wunderground v.1.15,2013-03-02 15:04:00,
2013-03-02 10:10:00,30.9,24.5,29.78,West,278,4.0,4.0,77,0.00,,,0.00,151,Wunderground v.1.15,2013-03-02 15:10:00,
2013-03-02 10:15:00,30.7,24.7,29.78,NW,304,4.0,7.0,78,0.00,,,0.00,155,Wunderground v.1.15,2013-03-02 15:15:00,
2013-03-02 10:21:00,30.8,24.7,29.78,North,351,4.0,8.0,78,0.00,,,0.00,160,Wunderground v.1.15,2013-03-02 15:21:00,
2013-03-02 10:27:00,31.2,25.1,29.78,WNW,290,3.0,8.0,78,0.00,,,0.00,172,Wunderground v.1.15,2013-03-02 15:27:00,
2013-03-02 10:32:00,31.1,24.7,29.78,NNW,338,3.0,8.0,77,0.00,,,0.00,186,Wunderground v.1.15,2013-03-02 15:32:00,
2013-03-02 10:38:00,31.2,24.8,29.78,NNW,341,4.0,8.0,77,0.00,,,0.00,197,Wunderground v.1.15,2013-03-02 15:38:00,
2013-03-02 10:44:00,31.5,25.1,29.78,West,273,4.0,8.0,77,0.00,,,0.00,209,Wunderground v.1.15,2013-03-02 15:44:00,
2013-03-02 10:49:00,31.5,25.1,29.78,West,275,4.0,8.0,77,0.00,,,0.00,223,Wunderground v.1.15,2013-03-02 15:49:00,
2013-03-02 10:55:00,31.6,24.9,29.78,North,360,4.0,8.0,76,0.00,,,0.00,244,Wunderground v.1.15,2013-03-02 15:55:00,
2013-03-02 11:00:00,31.7,25.0,29.78,NW,319,4.0,4.0,76,0.00,,,0.00,262,Wunderground v.1.15,2013-03-02 16:00:00,
2013-03-02 11:06:00,32.2,25.2,29.78,NNW,344,4.0,9.0,75,0.00,,,0.00,274,Wunderground v.1.15,2013-03-02 16:06:00,
2013-03-02 11:12:00,32.3,24.9,29.77,NW,316,4.0,5.0,74,0.00,,,0.00,279,Wunderground v.1.15,2013-03-02 16:12:00,
2013-03-02 11:17:00,32.5,25.5,29.77,NNW,329,4.0,5.0,75,0.00,,,0.00,283,Wunderground v.1.15,2013-03-02 16:17:00,
2013-03-02 11:22:00,32.8,25.4,29.77,NW,321,3.0,4.0,74,0.00,,,0.00,279,Wunderground v.1.15,2013-03-02 16:22:00,
2013-03-02 11:27:00,32.8,25.1,29.77,NNE,17,4.0,7.0,73,0.00,,,0.00,297,Wunderground v.1.15,2013-03-02 16:27:00,
2013-03-02 11:32:00,33.0,25.6,29.77,WNW,293,4.0,10.0,74,0.00,,,0.00,285,Wunderground v.1.15,2013-03-02 16:32:00,
2013-03-02 11:38:00,33.3,25.6,29.77,West,271,4.0,10.0,73,0.00,,,0.00,267,Wunderground v.1.15,2013-03-02 16:38:00,
2013-03-02 11:44:00,33.4,25.3,29.76,West,270,4.0,10.0,72,0.00,,,0.00,267,Wunderground v.1.15,2013-03-02 16:44:00,
2013-03-02 11:50:00,33.6,25.5,29.76,WSW,250,4.0,4.0,72,0.00,,,0.00,309,Wunderground v.1.15,2013-03-02 16:50:00,
2013-03-02 11:55:00,34.0,25.9,29.76,WNW,293,4.0,10.0,72,0.00,,,0.00,353,Wunderground v.1.15,2013-03-02 16:55:00,
2013-03-02 12:00:00,34.1,25.7,29.76,NNE,12,4.0,4.0,71,0.00,,,0.00,332,Wunderground v.1.15,2013-03-02 17:00:00,
2013-03-02 12:06:00,34.4,26.0,29.76,NNW,330,4.0,7.0,71,0.00,,,0.00,332,Wunderground v.1.15,2013-03-02 17:06:00,
2013-03-02 12:12:00,34.3,25.9,29.76,NNW,348,4.0,9.0,71,0.00,,,0.00,306,Wunderground v.1.15,2013-03-02 17:12:00,
2013-03-02 12:17:00,34.2,25.8,29.76,NNE,16,4.0,9.0,71,0.00,,,0.00,272,Wunderground v.1.15,2013-03-02 17:17:00,
2013-03-02 12:23:00,33.8,25.0,29.75,WNW,299,4.0,5.0,70,0.00,,,0.00,232,Wunderground v.1.15,2013-03-02 17:23:00,
2013-03-02 12:29:00,34.2,25.4,29.75,WSW,238,3.0,5.0,70,0.00,,,0.00,239,Wunderground v.1.15,2013-03-02 17:29:00,
2013-03-02 12:35:00,34.0,25.6,29.75,NW,323,4.0,12.0,71,0.00,,,0.00,214,Wunderground v.1.15,2013-03-02 17:35:00,
2013-03-02 12:41:00,33.9,25.1,29.75,North,355,4.0,12.0,70,0.00,,,0.00,207,Wunderground v.1.15,2013-03-02 17:41:00,
2013-03-02 12:46:00,34.2,25.8,29.75,WNW,287,3.0,12.0,71,0.00,,,0.00,225,Wunderground v.1.15,2013-03-02 17:46:00,
2013-03-02 12:52:00,34.8,26.0,29.74,NE,38,2.0,12.0,70,0.00,,,0.00,220,Wunderground v.1.15,2013-03-02 17:52:00,
2013-03-02 12:58:00,34.4,25.3,29.74,NNW,342,3.0,12.0,69,0.00,,,0.00,265,Wunderground v.1.15,2013-03-02 17:58:00,
2013-03-02 13:03:00,34.7,25.9,29.74,NNW,348,3.0,6.0,70,0.00,,,0.00,193,Wunderground v.1.15,2013-03-02 18:03:00,
2013-03-02 13:09:00,34.4,25.3,29.73,NW,323,4.0,6.0,69,0.00,,,0.00,188,Wunderground v.1.15,2013-03-02 18:09:00,
2013-03-02 13:15:00,34.4,25.6,29.73,WNW,298,4.0,8.0,70,0.00,,,0.00,202,Wunderground v.1.15,2013-03-02 18:15:00,
2013-03-02 13:20:00,34.5,25.4,29.73,NNW,333,5.0,5.0,69,0.00,,,0.00,186,Wunderground v.1.15,2013-03-02 18:20:00,
2013-03-02 13:26:00,34.6,25.5,29.73,North,360,4.0,6.0,69,0.00,,,0.00,149,Wunderground v.1.15,2013-03-02 18:26:00,
2013-03-02 13:31:00,34.6,25.5,29.73,NW,325,4.0,10.0,69,0.00,,,0.00,163,Wunderground v.1.15,2013-03-02 18:31:00,
2013-03-02 13:37:00,34.6,25.1,29.73,NNW,337,4.0,10.0,68,0.00,,,0.00,197,Wunderground v.1.15,2013-03-02 18:37:00,
2013-03-02 13:42:00,34.7,25.6,29.73,NNW,337,3.0,10.0,69,0.00,,,0.00,179,Wunderground v.1.15,2013-03-02 18:42:00,
2013-03-02 13:47:00,35.0,25.9,29.73,West,273,3.0,10.0,69,0.00,,,0.00,199,Wunderground v.1.15,2013-03-02 18:47:00,
2013-03-02 13:53:00,35.3,26.1,29.73,NNW,347,2.0,10.0,69,0.00,,,0.00,218,Wunderground v.1.15,2013-03-02 18:53:00,
2013-03-02 13:58:00,35.4,25.9,29.73,NNW,334,2.0,10.0,68,0.00,,,0.00,246,Wunderground v.1.15,2013-03-02 18:58:00,
2013-03-02 14:04:00,35.3,25.4,29.72,West,262,3.0,5.0,67,0.00,,,0.00,158,Wunderground v.1.15,2013-03-02 19:04:00,
2013-03-02 14:10:00,35.0,25.5,29.73,NNE,15,4.0,4.0,68,0.00,,,0.00,169,Wunderground v.1.15,2013-03-02 19:10:00,
2013-03-02 14:15:00,35.1,26.3,29.72,NW,304,3.0,4.0,70,0.00,,,0.00,118,Wunderground v.1.15,2013-03-02 19:15:00,
2013-03-02 14:21:00,35.0,25.5,29.72,NW,315,3.0,5.0,68,0.00,,,0.00,98,Wunderground v.1.15,2013-03-02 19:21:00,
2013-03-02 14:27:00,34.8,25.7,29.72,NNW,348,4.0,5.0,69,0.00,,,0.00,97,Wunderground v.1.15,2013-03-02 19:27:00,
2013-03-02 14:32:00,34.7,25.6,29.72,NNW,340,4.0,10.0,69,0.00,,,0.00,100,Wunderground v.1.15,2013-03-02 19:32:00,
2013-03-02 14:38:00,34.7,25.6,29.72,WNW,290,4.0,10.0,69,0.00,,,0.00,95,Wunderground v.1.15,2013-03-02 19:38:00,
2013-03-02 14:44:00,34.7,25.6,29.72,North,5,3.0,10.0,69,0.00,,,0.00,79,Wunderground v.1.15,2013-03-02 19:44:00,
2013-03-02 14:49:00,34.6,25.8,29.73,NNE,15,3.0,10.0,70,0.00,,,0.00,62,Wunderground v.1.15,2013-03-02 19:49:00,
2013-03-02 14:54:00,34.4,24.9,29.73,NW,325,3.0,10.0,68,0.00,,,0.00,51,Wunderground v.1.15,2013-03-02 19:54:00,
2013-03-02 15:00:00,34.1,25.0,29.73,NNW,340,4.0,4.0,69,0.00,,,0.00,53,Wunderground v.1.15,2013-03-02 20:00:00,
2013-03-02 15:06:00,34.1,25.0,29.73,ENE,57,4.0,5.0,69,0.00,,,0.00,62,Wunderground v.1.15,2013-03-02 20:06:00,
2013-03-02 15:11:00,34.1,25.0,29.73,North,5,3.0,4.0,69,0.00,,,0.00,54,Wunderground v.1.15,2013-03-02 20:11:00,
2013-03-02 15:17:00,34.2,25.1,29.73,NNW,344,2.0,4.0,69,0.00,,,0.00,49,Wunderground v.1.15,2013-03-02 20:17:00,
2013-03-02 15:22:00,34.1,25.0,29.73,North,9,1.0,8.0,69,0.00,,,0.00,46,weatherlink.com 1.10,2013-03-02 20:22:00,
2013-03-02 15:28:00,33.9,25.1,29.73,NNW,332,3.0,7.0,70,0.00,,,0.00,44,Wunderground v.1.15,2013-03-02 20:28:00,
2013-03-02 15:33:00,33.9,25.1,29.73,NNE,29,4.0,11.0,70,0.00,,,0.00,42,Wunderground v.1.15,2013-03-02 20:33:00,
2013-03-02 15:39:00,33.7,25.0,29.73,NE,38,1.0,10.0,70,0.00,,,0.00,42,weatherlink.com 1.10,2013-03-02 20:39:00,
2013-03-02 15:45:00,33.5,24.8,29.73,NNE,30,3.0,11.0,70,0.00,,,0.00,42,Wunderground v.1.15,2013-03-02 20:45:00,
2013-03-02 15:50:00,33.4,24.7,29.73,NNW,340,3.0,3.0,70,0.00,,,0.00,42,Wunderground v.1.15,2013-03-02 20:50:00,
2013-03-02 15:56:00,33.3,25.0,29.73,NE,43,3.0,9.0,70,0.00,,,0.00,44,weatherlink.com 1.10,2013-03-02 20:56:00,
2013-03-02 16:01:00,33.2,24.5,29.73,NNW,342,5.0,7.0,70,0.00,,,0.00,44,Wunderground v.1.15,2013-03-02 21:01:00,
2013-03-02 16:07:00,33.1,24.4,29.74,North,9,5.0,10.0,70,0.00,,,0.00,40,Wunderground v.1.15,2013-03-02 21:07:00,
2013-03-02 16:12:00,33.0,24.3,29.73,WNW,291,5.0,6.0,70,0.00,,,0.00,21,Wunderground v.1.15,2013-03-02 21:12:00,
2013-03-02 16:18:00,32.9,24.5,29.73,SW,232,4.0,8.0,71,0.00,,,0.00,23,Wunderground v.1.15,2013-03-02 21:18:00,
2013-03-02 16:23:00,32.9,24.5,29.74,NW,305,3.0,4.0,71,0.00,,,0.00,19,Wunderground v.1.15,2013-03-02 21:23:00,
2013-03-02 16:29:00,32.9,24.5,29.74,NW,323,3.0,14.0,71,0.00,,,0.00,30,Wunderground v.1.15,2013-03-02 21:29:00,
2013-03-02 16:35:00,32.6,24.2,29.74,NNW,333,4.0,8.0,71,0.00,,,0.00,26,Wunderground v.1.15,2013-03-02 21:35:00,
2013-03-02 16:41:00,32.4,24.4,29.74,SW,229,4.0,8.0,72,0.00,,,0.00,30,Wunderground v.1.15,2013-03-02 21:41:00,
2013-03-02 16:46:00,32.3,24.0,29.74,North,355,5.0,9.0,72,0.00,,,0.00,32,weatherlink.com 1.10,2013-03-02 21:46:00,
2013-03-02 16:52:00,32.0,24.3,29.74,WNW,299,4.0,8.0,73,0.00,,,0.00,30,Wunderground v.1.15,2013-03-02 21:52:00,
2013-03-02 16:58:00,31.9,24.2,29.74,NNW,337,4.0,8.0,73,0.00,,,0.00,26,Wunderground v.1.15,2013-03-02 21:58:00,
2013-03-02 17:04:00,31.6,24.0,29.75,NW,323,4.0,10.0,74,0.00,,,0.00,19,weatherlink.com 1.10,2013-03-02 22:04:00,
2013-03-02 17:09:00,31.2,24.2,29.75,NE,55,5.0,9.0,75,0.00,,,0.00,16,Wunderground v.1.15,2013-03-02 22:09:00,
2013-03-02 17:14:00,31.0,24.6,29.75,NW,313,5.0,14.0,77,0.00,,,0.00,12,Wunderground v.1.15,2013-03-02 22:14:00,
2013-03-02 17:19:00,30.6,24.9,29.75,NW,312,5.0,14.0,79,0.00,,,0.00,12,Wunderground v.1.15,2013-03-02 22:19:00,
2013-03-02 17:25:00,30.3,24.9,29.75,NNE,12,3.0,8.0,80,0.00,,,0.00,9,Wunderground v.1.15,2013-03-02 22:25:00,
2013-03-02 17:31:00,30.0,24.9,29.75,North,355,4.0,6.0,81,0.00,,,0.00,7,Wunderground v.1.15,2013-03-02 22:31:00,
2013-03-02 17:36:00,29.9,25.1,29.75,NNW,327,4.0,14.0,82,0.00,,,0.00,0,Wunderground v.1.15,2013-03-02 22:36:00,
2013-03-02 17:42:00,29.8,25.0,29.76,NE,34,3.0,14.0,82,0.00,,,0.00,0,Wunderground v.1.15,2013-03-02 22:42:00,
2013-03-02 17:47:00,29.8,25.0,29.76,NNW,338,3.0,14.0,82,0.00,,,0.00,0,Wunderground v.1.15,2013-03-02 22:47:00,
2013-03-02 17:53:00,29.9,25.1,29.76,NNW,339,3.0,14.0,82,0.00,,,0.00,0,Wunderground v.1.15,2013-03-02 22:53:00,
2013-03-02 17:59:00,29.8,24.7,29.76,WNW,293,4.0,14.0,81,0.00,,,0.00,0,Wunderground v.1.15,2013-03-02 22:59:00,
2013-03-02 18:04:00,29.8,24.4,29.76,West,267,5.0,5.0,80,0.00,,,0.00,0,Wunderground v.1.15,2013-03-02 23:04:00,
2013-03-02 18:10:00,29.7,24.3,29.76,NW,309,4.0,6.0,80,0.00,,,0.00,0,Wunderground v.1.15,2013-03-02 23:10:00,
2013-03-02 18:16:00,29.7,24.3,29.76,NNW,343,4.0,8.0,80,0.00,,,0.00,0,Wunderground v.1.15,2013-03-02 23:16:00,
2013-03-02 18:22:00,29.7,24.3,29.77,NNW,334,4.0,7.0,80,0.00,,,0.00,0,Wunderground v.1.15,2013-03-02 23:22:00,
2013-03-02 18:28:00,29.7,24.0,29.77,NE,47,3.0,11.0,79,0.00,,,0.00,0,weatherlink.com 1.10,2013-03-02 23:28:00,
2013-03-02 18:33:00,29.6,23.9,29.77,West,277,4.0,16.0,79,0.00,,,0.00,0,Wunderground v.1.15,2013-03-02 23:33:00,
2013-03-02 18:38:00,29.5,23.8,29.77,WNW,298,4.0,16.0,79,0.00,,,0.00,0,Wunderground v.1.15,2013-03-02 23:38:00,
2013-03-02 18:44:00,29.4,23.7,29.77,NNW,336,4.0,16.0,79,0.00,,,0.00,0,Wunderground v.1.15,2013-03-02 23:44:00,
2013-03-02 18:50:00,29.3,23.6,29.77,West,281,5.0,16.0,79,0.00,,,0.00,0,Wunderground v.1.15,2013-03-02 23:50:00,
2013-03-02 18:56:00,29.2,23.8,29.77,North,360,5.0,16.0,80,0.00,,,0.00,0,Wunderground v.1.15,2013-03-02 23:56:00,
2013-03-02 19:01:00,29.0,24.0,29.77,WNW,290,0.0,10.0,80,0.00,,,0.00,0,weatherlink.com 1.10,2013-03-03 00:01:00,
2013-03-02 19:07:00,29.0,23.9,29.77,NNW,341,4.0,7.0,81,0.00,,,0.00,0,Wunderground v.1.15,2013-03-03 00:07:00,
2013-03-02 19:13:00,28.9,23.8,29.77,NNE,33,4.0,4.0,81,0.00,,,0.00,0,Wunderground v.1.15,2013-03-03 00:13:00,
2013-03-02 19:18:00,28.9,23.8,29.77,NNE,14,3.0,7.0,81,0.00,,,0.00,0,Wunderground v.1.15,2013-03-03 00:18:00,
2013-03-02 19:24:00,28.8,23.7,29.77,NNW,344,3.0,5.0,81,0.00,,,0.00,0,Wunderground v.1.15,2013-03-03 00:24:00,
2013-03-02 19:29:00,28.7,23.9,29.77,North,355,4.0,12.0,82,0.00,,,0.00,0,Wunderground v.1.15,2013-03-03 00:29:00,
2013-03-02 19:35:00,28.5,24.0,29.77,North,351,5.0,11.0,82,0.00,,,0.00,0,weatherlink.com 1.10,2013-03-03 00:35:00,
2013-03-02 19:41:00,28.5,23.7,29.77,North,355,3.0,13.0,82,0.00,,,0.00,0,Wunderground v.1.15,2013-03-03 00:41:00,
2013-03-02 19:46:00,28.4,23.9,29.77,NNW,335,2.0,13.0,83,0.00,,,0.00,0,Wunderground v.1.15,2013-03-03 00:46:00,
2013-03-02 19:51:00,28.3,24.0,29.78,NW,311,4.0,8.0,83,0.00,,,0.00,0,weatherlink.com 1.10,2013-03-03 00:51:00,
2013-03-02 19:57:00,28.2,23.7,29.78,West,275,4.0,13.0,83,0.00,,,0.00,0,Wunderground v.1.15,2013-03-03 00:57:00,
2013-03-02 20:02:00,28.1,23.6,29.77,WNW,288,4.0,4.0,83,0.00,,,0.00,0,Wunderground v.1.15,2013-03-03 01:02:00,
2013-03-02 20:08:00,28.0,23.8,29.78,West,280,3.0,6.0,84,0.00,,,0.00,0,Wunderground v.1.15,2013-03-03 01:08:00,
2013-03-02 20:13:00,28.0,23.5,29.78,NW,304,3.0,4.0,83,0.00,,,0.00,0,Wunderground v.1.15,2013-03-03 01:13:00,
2013-03-02 20:19:00,27.9,23.7,29.78,NNW,333,3.0,10.0,84,0.00,,,0.00,0,Wunderground v.1.15,2013-03-03 01:19:00,
2013-03-02 20:25:00,27.8,23.3,29.78,NW,318,3.0,4.0,83,0.00,,,0.00,0,Wunderground v.1.15,2013-03-03 01:25:00,
2013-03-02 20:31:00,27.7,23.2,29.78,NNW,341,3.0,5.0,83,0.00,,,0.00,0,Wunderground v.1.15,2013-03-03 01:31:00,
2013-03-02 20:36:00,27.6,23.4,29.78,NNW,327,4.0,12.0,84,0.00,,,0.00,0,Wunderground v.1.15,2013-03-03 01:36:00,
2013-03-02 20:42:00,27.5,23.3,29.78,NW,319,4.0,12.0,84,0.00,,,0.00,0,Wunderground v.1.15,2013-03-03 01:42:00,
2013-03-02 20:47:00,27.5,23.3,29.79,North,355,3.0,12.0,84,0.00,,,0.00,0,Wunderground v.1.15,2013-03-03 01:47:00,
2013-03-02 20:53:00,27.4,23.2,29.79,NNW,341,3.0,12.0,84,0.00,,,0.00,0,Wunderground v.1.15,2013-03-03 01:53:00,
2013-03-02 20:59:00,27.4,23.2,29.79,West,281,3.0,12.0,84,0.00,,,0.00,0,Wunderground v.1.15,2013-03-03 01:59:00,
2013-03-02 21:05:00,27.4,23.2,29.79,NNE,13,4.0,8.0,84,0.00,,,0.00,0,Wunderground v.1.15,2013-03-03 02:05:00,
2013-03-02 21:11:00,27.4,23.2,29.79,NNW,348,4.0,5.0,84,0.00,,,0.00,0,Wunderground v.1.15,2013-03-03 02:11:00,
2013-03-02 21:17:00,27.2,23.0,29.79,NNW,333,2.0,11.0,84,0.00,,,0.00,0,weatherlink.com 1.10,2013-03-03 02:17:00,
2013-03-02 21:22:00,27.2,23.0,29.79,North,11,4.0,6.0,84,0.00,,,0.00,0,Wunderground v.1.15,2013-03-03 02:22:00,
2013-03-02 21:27:00,27.2,23.0,29.79,NNE,30,4.0,6.0,84,0.00,,,0.00,0,Wunderground v.1.15,2013-03-03 02:27:00,
2013-03-02 21:33:00,27.1,22.9,29.79,NW,316,4.0,10.0,84,0.00,,,0.00,0,Wunderground v.1.15,2013-03-03 02:33:00,
2013-03-02 21:38:00,27.1,22.9,29.79,WNW,302,4.0,10.0,84,0.00,,,0.00,0,Wunderground v.1.15,2013-03-03 02:38:00,
2013-03-02 21:44:00,27.0,22.8,29.78,North,349,3.0,10.0,84,0.00,,,0.00,0,Wunderground v.1.15,2013-03-03 02:44:00,
2013-03-02 21:49:00,26.9,22.7,29.78,NNE,16,4.0,10.0,84,0.00,,,0.00,0,Wunderground v.1.15,2013-03-03 02:49:00,
2013-03-02 21:55:00,26.8,22.9,29.78,WNW,303,4.0,10.0,85,0.00,,,0.00,0,Wunderground v.1.15,2013-03-03 02:55:00,
2013-03-02 22:00:00,26.8,22.9,29.78,West,277,4.0,5.0,85,0.00,,,0.00,0,Wunderground v.1.15,2013-03-03 03:00:00,
2013-03-02 22:06:00,26.7,22.8,29.78,NW,323,4.0,7.0,85,0.00,,,0.00,0,Wunderground v.1.15,2013-03-03 03:06:00,
2013-03-02 22:11:00,26.6,22.7,29.78,NNW,342,4.0,4.0,85,0.00,,,0.00,0,Wunderground v.1.15,2013-03-03 03:11:00,
2013-03-02 22:17:00,26.6,23.0,29.77,West,273,3.0,4.0,86,0.00,,,0.00,0,Wunderground v.1.15,2013-03-03 03:17:00,
2013-03-02 22:22:00,26.5,22.9,29.77,NW,310,4.0,7.0,86,0.00,,,0.00,0,Wunderground v.1.15,2013-03-03 03:22:00,
2013-03-02 22:28:00,26.4,22.8,29.77,West,277,3.0,7.0,86,0.00,,,0.00,0,Wunderground v.1.15,2013-03-03 03:28:00,
2013-03-02 22:34:00,26.3,22.7,29.77,NW,310,3.0,11.0,86,0.00,,,0.00,0,Wunderground v.1.15,2013-03-03 03:34:00,
2013-03-02 22:40:00,26.2,22.9,29.77,WNW,290,3.0,11.0,87,0.00,,,0.00,0,Wunderground v.1.15,2013-03-03 03:40:00,
2013-03-02 22:46:00,26.2,22.9,29.77,WNW,287,3.0,11.0,87,0.00,,,0.00,0,Wunderground v.1.15,2013-03-03 03:46:00,
2013-03-02 22:52:00,26.1,22.8,29.77,West,273,3.0,11.0,87,0.00,,,0.00,0,Wunderground v.1.15,2013-03-03 03:52:00,
2013-03-02 22:58:00,26.1,22.8,29.77,West,271,3.0,11.0,87,0.00,,,0.00,0,Wunderground v.1.15,2013-03-03 03:58:00,
2013-03-02 23:04:00,26.0,22.7,29.77,NNE,21,3.0,5.0,87,0.00,,,0.00,0,Wunderground v.1.15,2013-03-03 04:04:00,
2013-03-02 23:10:00,25.9,22.6,29.77,NNW,348,3.0,3.0,87,0.00,,,0.00,0,Wunderground v.1.15,2013-03-03 04:10:00,
2013-03-02 23:15:00,25.9,23.0,29.77,North,355,2.0,9.0,87,0.00,,,0.00,0,weatherlink.com 1.10,2013-03-03 04:15:00,
2013-03-02 23:21:00,25.8,22.5,29.76,North,9,3.0,3.0,87,0.00,,,0.00,0,Wunderground v.1.15,2013-03-03 04:21:00,
2013-03-02 23:26:00,25.8,22.5,29.76,NE,42,2.0,4.0,87,0.00,,,0.00,0,Wunderground v.1.15,2013-03-03 04:26:00,
2013-03-02 23:32:00,25.8,22.2,29.76,West,271,2.0,10.0,86,0.00,,,0.00,0,Wunderground v.1.15,2013-03-03 04:32:00,
2013-03-02 23:38:00,25.8,22.2,29.76,NNW,339,2.0,10.0,86,0.00,,,0.00,0,Wunderground v.1.15,2013-03-03 04:38:00,
2013-03-02 23:43:00,25.8,22.2,29.76,NW,308,2.0,10.0,86,0.00,,,0.00,0,Wunderground v.1.15,2013-03-03 04:43:00,
2013-03-02 23:49:00,25.8,22.0,29.76,NW,323,5.0,6.0,86,0.00,,,0.00,0,weatherlink.com 1.10,2013-03-03 04:49:00,
2013-03-02 23:54:00,25.7,22.1,29.76,North,350,3.0,10.0,86,0.00,,,0.00,0,Wunderground v.1.15,2013-03-03 04:54:00,